Latest Coastal Weather Observations for Maatsuyker Island

IDT60701

Issued at 8:51 am EDT Monday 8 February 2016 (issued every 10 minutes, with the page automatically refreshed every 10 minutes)

About coastal observations | Map of coastal stations | Coastal observations for TAS | Marine services | Other Formats
Station Details ID: 094041 Name: MAATSUYKER ISLAND LIGHTHOUSE Lat: -43.66 Lon: 146.27 Height: 146.5 m
Data from the previous 72 hours. | See also: Recent months at Maatsuyker Island
Date/Time
EDT
Temp

°C
Wind Pressure Rain
since 9am
mm
Weather Cloud Vis
km
Sea
Height
m
Swell
Dir
 
Speed
knots
Gust
knots
hPa Trend Height
m
Period
s
Dir
08/08:30am 15.3 NW 32 36 1018.0 - 0.0 - - - - - - -
08/08:00am 15.9 NW 34 36 1017.9 - 0.0 - - - - - - -
08/07:30am 15.8 NW 29 32 1017.7 - 0.0 - - - - - - -
08/07:00am 15.6 NW 29 33 1017.5 - 0.0 - - - - - - -
08/06:30am 15.5 NW 29 31 1017.4 - 0.0 - - - - - - -
08/06:00am 15.6 W 21 29 1017.2 F 0.0 Fine Partly cloudy 20 2 2.0 10 SW
08/05:30am 15.6 NW 26 29 1017.1 - 0.0 - - - - - - -
08/05:00am 15.5 NW 25 27 1016.9 - 0.0 - - - - - - -
08/04:30am 16.1 NW 22 24 1017.0 - 0.0 - - - - - - -
08/04:00am 16.1 NNW 18 21 1017.4 - 0.0 - - - - - - -
08/03:30am 16.1 NW 22 24 1017.4 - 0.0 - - - - - - -
08/03:00am 16.1 NW 20 22 1017.4 - 0.0 - - - - - - -
08/02:30am 15.7 NW 18 21 1017.8 - 0.0 - - - - - - -
08/02:00am 15.9 NW 15 16 1018.2 - 0.0 - - - - - - -
08/01:30am 16.0 NW 11 12 1018.3 - 0.0 - - - - - - -
08/01:00am 15.4 NNW 9 11 1018.2 - 0.0 - - - - - - -
08/12:30am 15.5 N 8 9 1018.1 - 0.0 - - - - - - -
08/12:00am 15.8 N 5 7 1018.3 - 0.0 - - - - - - -
 
Date/Time
EDT
Temp

°C
Wind Pressure Rain
since 9am
mm
Weather Cloud Vis
km
Sea
Height
m
Swell
Dir
 
Speed
knots
Gust
knots
hPa Trend Height
m
Period
s
Dir
07/11:30pm 15.9 W 3 4 1018.6 - 0.0 - - - - - - -
07/11:00pm 16.2 CALM 0 0 1018.6 - 0.0 - - - - - - -
07/10:30pm 15.7 NNE 4 6 1018.5 - 0.0 - - - - - - -
07/10:00pm 16.2 N 1 4 1018.7 - 0.0 - - - - - - -
07/09:30pm 16.8 NE 5 9 1018.5 - 0.0 - - - - - - -
07/09:00pm 16.6 ENE 7 10 1017.9 - 0.0 - - - - - - -
07/08:30pm 16.6 N 4 7 1018.0 - 0.0 - - - - - - -
07/08:00pm 17.4 NNW 1 8 1018.0 - 0.0 - - - - - - -
07/07:30pm 18.6 NNW 3 5 1017.8 - 0.0 - - - - - - -
07/07:00pm 17.9 ESE 5 9 1017.7 - 0.0 - - - - - - -
07/06:30pm 19.0 ESE 4 6 1017.6 - 0.0 - - - - - - -
07/06:00pm 19.0 NNW 2 4 1017.4 - 0.0 - - - - - - -
07/05:30pm 19.7 N 3 6 1017.4 - 0.0 - - - - - - -
07/05:00pm 19.4 N 4 7 1017.6 - 0.0 - - - - - - -
07/04:30pm 18.9 E 4 9 1017.4 - 0.0 - - - - - - -
07/04:00pm 20.1 SE 14 17 1017.4 - 0.0 - - - - - - -
07/03:30pm 20.5 SSE 13 15 1017.4 - 0.0 - - - - - - -
07/03:00pm 20.4 SE 10 15 1017.4 - 0.0 - - - - - - -
07/02:30pm 19.5 N 4 7 1017.6 - 0.0 - - - - - - -
07/02:00pm 19.8 N 5 7 1017.6 - 0.0 - - - - - - -
07/01:30pm 19.6 N 4 7 1017.9 - 0.0 - - - - - - -
07/01:00pm 18.5 E 4 6 1018.4 - 0.0 - - - - - - -
07/12:30pm 18.9 N 3 6 1018.5 - 0.0 - - - - - - -
07/12:00pm 18.4 NNW 4 8 1018.3 - 0.0 - - - - - - -
07/11:30am 18.6 NW 2 6 1018.4 - 0.0 - - - - - - -
07/11:00am 17.9 N 3 5 1018.6 - 0.0 - - - - - - -
07/10:30am 17.5 N 2 5 1018.8 - 0.0 - - - - - - -
07/10:00am 16.8 CALM 0 3 1018.6 - 0.0 - - - - - - -
07/09:30am 16.7 NW 1 4 1018.7 - 0.0 - - - - - - -
07/09:00am 16.3 E 4 5 1018.5 F 0.0 Fine Cloudy 20 <0.5 2.0 11 SW
07/08:30am 16.3 NW 1 6 1018.6 - 0.0 - - - - - - -
07/08:00am 16.1 CALM 0 0 1018.5 - 0.0 - - - - - - -
07/07:30am 15.8 CALM 0 0 1018.4 - 0.0 - - - - - - -
07/07:00am 15.6 E 2 6 1018.3 - 0.0 - - - - - - -
07/06:30am 15.6 E 3 8 1018.1 - 0.0 - - - - - - -
07/06:00am 15.4 SE 2 7 1017.9 R 0.0 Fine Mostly cloudy 15 <0.5 1.5 13 SW
07/05:30am 15.5 E 2 7 1017.8 - 0.0 - - - - - - -
07/05:00am 15.6 SE 5 7 1017.7 - 0.0 - - - - - - -
07/04:30am 15.8 S 10 11 1017.8 - 0.0 - - - - - - -
07/04:00am 15.8 S 10 11 1017.6 - 0.0 - - - - - - -
07/03:30am 15.8 S 14 16 1017.2 - 0.0 - - - - - - -
07/03:00am 16.1 S 11 13 1017.4 - 0.0 - - - - - - -
07/02:30am 16.2 ESE 6 9 1017.4 - 0.0 - - - - - - -
07/02:00am 16.3 E 3 8 1017.5 - 0.0 - - - - - - -
07/01:30am 16.3 N 1 3 1017.6 - 0.0 - - - - - - -
07/01:00am 16.4 NNW 2 5 1017.8 - 0.0 - - - - - - -
07/12:30am 16.3 NNW 4 6 1017.8 - 0.0 - - - - - - -
07/12:00am 16.2 NNW 4 5 1017.6 - 0.0 - - - - - - -
 
Date/Time
EDT
Temp

°C
Wind Pressure Rain
since 9am
mm
Weather Cloud Vis
km
Sea
Height
m
Swell
Dir
 
Speed
knots
Gust
knots
hPa Trend Height
m
Period
s
Dir
06/11:30pm 16.1 NNW 4 9 1017.7 - 0.0 - - - - - - -
06/11:00pm 16.1 NNW 4 8 1017.9 - 0.0 - - - - - - -
06/10:30pm 16.2 NNW 3 5 1018.2 - 0.0 - - - - - - -
06/10:00pm 16.2 NNW 4 7 1018.4 - 0.0 - - - - - - -
06/09:30pm 16.1 NW 4 7 1018.2 - 0.0 - - - - - - -
06/09:00pm 16.0 NNW 6 13 1017.8 - 0.0 - - - - - - -
06/08:30pm 15.8 N 6 12 1017.9 - 0.0 - - - - - - -
06/08:00pm 15.9 NNW 5 9 1017.8 - 0.0 - - - - - - -
06/07:30pm 16.0 N 7 16 1017.8 - 0.0 - - - - - - -
06/07:00pm 17.0 NNW 6 10 1017.7 - 0.0 - - - - - - -
06/06:30pm 17.6 NW 6 11 1017.8 - 0.0 - - - - - - -
06/06:00pm 18.4 NW 4 6 1018.0 - 0.0 - - - - - - -
06/05:30pm 17.6 NW 3 6 1018.5 - 0.0 - - - - - - -
06/05:00pm 18.1 N 4 8 1018.7 - 0.0 - - - - - - -
06/04:30pm 18.1 SE 11 17 1018.9 - 0.0 - - - - - - -
06/04:00pm 18.0 SSE 13 15 1019.2 - 0.0 - - - - - - -
06/03:30pm 17.4 SE 10 12 1019.5 - 0.0 - - - - - - -
06/03:00pm 16.7 E 5 11 1019.5 - 0.0 - - - - - - -
06/02:30pm 16.8 SE 6 10 1019.9 - 0.0 - - - - - - -
06/02:00pm 17.8 SSE 9 11 1020.3 - 0.0 - - - - - - -
06/01:30pm 17.2 SSE 7 9 1020.8 - 0.0 - - - - - - -
06/01:00pm 16.7 SSE 8 10 1020.8 - 0.0 - - - - - - -
06/12:30pm 16.7 S 8 11 1021.2 - 0.0 - - - - - - -
06/12:00pm 16.3 S 9 13 1021.3 - 0.0 - - - - - - -
06/11:30am 16.7 S 8 10 1021.6 - 0.0 - - - - - - -
06/11:00am 15.8 SSW 9 11 1021.6 - 0.0 - - - - - - -
06/10:30am 15.1 SW 7 9 1021.7 - 0.0 - - - - - - -
06/10:00am 15.4 WSW 8 10 1021.7 - 0.0 - - - - - - -
06/09:30am 15.2 W 8 11 1021.7 - 0.0 - - - - - - -
06/09:00am 15.0 NW 14 15 1021.6 R 0.0 Haze Partly cloudy 0 1 2.5 11 SW
06/08:30am 15.0 NW 14 16 1021.1 - 0.0 - - - - - - -
06/08:00am 14.7 NW 13 16 1020.8 - 0.0 - - - - - - -
06/07:30am 14.6 NW 13 14 1020.8 - 0.0 - - - - - - -
06/07:00am 14.5 WNW 12 14 1020.6 - 0.0 - - - - - - -
06/06:30am 14.2 WNW 10 11 1020.5 - 0.0 - - - - - - -
06/06:00am 14.3 N 8 13 1019.9 F 0.0 Mist Mostly clear 5 <0.5 2.5 11 SW
06/05:30am 14.1 NW 10 12 1019.7 - 0.0 - - - - - - -
06/05:00am 13.3 N 11 12 1019.5 - 0.0 - - - - - - -
06/04:30am 13.5 N 9 11 1019.6 - 0.0 - - - - - - -
06/04:00am 13.4 N 8 9 1019.7 - 0.0 - - - - - - -
06/03:30am 13.3 N 6 7 1020.0 - 0.0 - - - - - - -
06/03:00am 13.2 N 5 6 1020.2 - 0.0 - - - - - - -
06/02:30am 13.7 CALM 0 0 1020.8 - 0.0 - - - - - - -
06/02:00am 13.7 SE 1 4 1021.3 - 0.0 - - - - - - -
06/01:30am 13.9 N 4 8 1021.6 - 0.0 - - - - - - -
06/01:00am 13.8 W 4 8 1022.0 - 0.0 - - - - - - -
06/12:30am 13.6 NW 3 6 1022.4 - 0.0 - - - - - - -
06/12:00am 13.4 NNW 2 5 1022.8 - 0.0 - - - - - - -
 
Date/Time
EDT
Temp

°C
Wind Pressure Rain
since 9am
mm
Weather Cloud Vis
km
Sea
Height
m
Swell
Dir
 
Speed
knots
Gust
knots
hPa Trend Height
m
Period
s
Dir
05/11:30pm 13.3 NW 2 5 1023.1 - 0.0 - - - - - - -
05/11:00pm 13.3 NW 1 4 1023.6 - 0.0 - - - - - - -
05/10:30pm 13.4 CALM 0 3 1023.9 - 0.0 - - - - - - -
05/10:00pm 13.5 CALM 0 0 1023.9 - 0.0 - - - - - - -
05/09:30pm 13.5 CALM 0 0 1023.8 - 0.0 - - - - - - -
05/09:00pm 13.8 NNE 1 4 1023.6 - 0.0 - - - - - - -
05/08:30pm 14.3 SSE 9 11 1023.6 - 0.0 - - - - - - -
05/08:00pm 15.2 S 9 11 1023.3 - 0.0 - - - - - - -
05/07:30pm 16.2 S 7 9 1023.1 - 0.0 - - - - - - -
05/07:00pm 16.7 SSW 5 7 1022.9 - 0.0 - - - - - - -
05/06:30pm 16.7 SW 6 8 1022.8 - 0.0 - - - - - - -
05/06:00pm 16.8 SSW 7 10 1022.9 - 0.0 - - - - - - -
05/05:30pm 17.1 SW 8 11 1023.0 - 0.0 - - - - - - -
05/05:00pm 17.6 WSW 8 11 1023.0 - 0.0 - - - - - - -
05/04:30pm 18.4 WSW 8 11 1023.2 - 0.0 - - - - - - -
05/04:00pm 17.5 W 9 12 1023.2 - 0.0 - - - - - - -
05/03:30pm 17.6 W 9 14 1023.5 - 0.0 - - - - - - -
05/03:00pm 17.4 W 11 14 1023.6 - 0.0 - - - - - - -
05/02:30pm 17.1 W 11 16 1023.8 - 0.0 - - - - - - -
05/02:00pm 17.7 WNW 11 15 1023.7 - 0.0 - - - - - - -
05/01:30pm 17.5 WNW 13 16 1023.8 - 0.0 - - - - - - -
05/01:00pm 17.8 NW 14 16 1023.7 - 0.0 - - - - - - -
05/12:30pm 17.5 NW 12 15 1023.9 - 0.0 - - - - - - -
05/12:00pm 17.4 WNW 9 12 1023.9 - 0.0 - - - - - - -
05/11:30am 16.4 NW 8 10 1024.3 - 0.0 - - - - - - -
05/11:00am 15.7 NNW 9 11 1024.4 - 0.0 - - - - - - -
05/10:30am 15.0 NNW 8 10 1024.4 - 0.0 - - - - - - -
05/10:00am 15.0 NW 10 12 1024.3 - 0.0 - - - - - - -
05/09:30am 14.7 WNW 9 11 1024.2 - 0.0 - - - - - - -
05/09:00am 14.4 W 5 8 1024.1 R 0.0 Fine Mostly cloudy 20 <0.5 3.0 13 SW

Other Formats:

Comma delimited format used in spreadsheet applications
http://www.bom.gov.au/fwo/IDT60701/IDT60701.94962.axf

JavaScript Object Notation format (JSON) in row-major order
http://www.bom.gov.au/fwo/IDT60701/IDT60701.94962.json